Time;durP1;ratioP1;P1;durP2;ratioP2;P2;SDS_P1;SDS_P2;PMS_P1;PMS_P2;Temp;Humidity;BMP_temperature;BMP_pressure;BME280_temperature;BME280_humidity;BME280_pressure;Samples;Min_cycle;Max_cycle;Signal;HPM_P1;HPM_P2
2022/09/23 00:01:54;;;;;;;13.77;10.50;;;6.00;99.90;;;;;;5096721;28;20191;-81
2022/09/23 00:04:20;;;;;;;15.43;11.17;;;5.80;99.90;;;;;;5094421;28;20614;-80
2022/09/23 00:06:46;;;;;;;11.97;10.90;;;5.70;99.90;;;;;;5093411;28;20176;-82
2022/09/23 00:09:12;;;;;;;12.07;10.93;;;5.60;99.90;;;;;;5090644;28;20197;-83
2022/09/23 00:11:38;;;;;;;10.50;9.40;;;5.60;99.90;;;;;;5096914;28;20202;-83
2022/09/23 00:14:04;;;;;;;11.50;10.40;;;5.50;99.90;;;;;;5096420;28;20319;-81
2022/09/23 00:16:32;;;;;;;15.07;12.27;;;5.50;99.90;;;;;;5098431;28;20185;-81
2022/09/23 00:18:59;;;;;;;11.53;10.53;;;5.50;99.90;;;;;;5078153;28;20178;-82
2022/09/23 00:21:26;;;;;;;12.07;11.07;;;5.50;99.90;;;;;;5095679;28;20185;-80
2022/09/23 00:23:52;;;;;;;12.13;11.23;;;5.40;99.90;;;;;;5095628;28;20592;-81
2022/09/23 00:26:19;;;;;;;11.93;10.83;;;5.50;99.90;;;;;;5094760;28;20181;-82
2022/09/23 00:28:46;;;;;;;12.10;10.90;;;5.50;99.90;;;;;;5076502;28;20250;-82
2022/09/23 00:31:18;;;;;;;10.97;9.97;;;5.50;99.90;;;;;;5077027;28;20177;-82
2022/09/23 00:33:44;;;;;;;11.73;10.40;;;5.50;99.90;;;;;;5076886;28;20201;-81
2022/09/23 00:36:15;;;;;;;13.07;9.83;;;5.50;99.90;;;;;;5078269;28;20177;-82
2022/09/23 00:38:43;;;;;;;11.07;10.17;;;5.40;99.90;;;;;;5076938;28;20201;-82
2022/09/23 00:41:09;;;;;;;11.97;10.97;;;5.40;99.90;;;;;;5077161;28;20264;-81
2022/09/23 00:43:54;;;;;;;10.57;9.70;;;5.40;99.90;;;;;;5095842;28;20231;-82
2022/09/23 00:46:33;;;;;;;10.07;9.27;;;5.40;99.90;;;;;;5078713;28;20553;-82
2022/09/23 00:49:12;;;;;;;11.03;10.03;;;5.40;99.90;;;;;;5095717;28;20169;-82
2022/09/23 00:51:48;;;;;;;9.53;8.83;;;5.40;99.90;;;;;;5077305;28;20199;-82
2022/09/23 00:54:15;;;;;;;10.33;9.43;;;5.30;99.90;;;;;;5079256;28;20268;-82
2022/09/23 00:56:41;;;;;;;10.77;9.97;;;5.30;99.90;;;;;;5096147;28;20532;-81
2022/09/23 00:59:08;;;;;;;11.37;10.47;;;5.20;99.90;;;;;;5084808;28;20206;-80
2022/09/23 01:01:36;;;;;;;13.53;9.97;;;5.10;99.90;;;;;;5104259;28;20648;-80
2022/09/23 01:04:02;;;;;;;12.47;11.30;;;5.10;99.90;;;;;;5086339;28;20213;-81
2022/09/23 01:06:28;;;;;;;12.80;11.60;;;5.00;99.90;;;;;;5097542;28;20235;-82
2022/09/23 01:08:55;;;;;;;10.70;9.80;;;5.00;99.90;;;;;;5080322;28;20184;-81
2022/09/23 01:11:48;;;;;;;12.33;11.17;;;4.90;99.90;;;;;;5082112;28;20665;-80
2022/09/23 01:14:30;;;;;;;10.50;9.70;;;4.90;99.90;;;;;;5113419;28;20205;-79
2022/09/23 01:17:21;;;;;;;11.40;10.60;;;4.90;99.90;;;;;;5088685;28;20675;-82
2022/09/23 01:20:11;;;;;;;10.23;9.43;;;4.90;99.90;;;;;;5099192;28;20559;-81
2022/09/23 01:22:58;;;;;;;11.33;9.43;;;4.90;99.90;;;;;;5099839;28;20223;-82
2022/09/23 01:26:03;;;;;;;10.50;9.60;;;4.90;99.90;;;;;;5096298;28;20645;-82
2022/09/23 01:28:44;;;;;;;10.57;9.57;;;4.80;99.90;;;;;;5073303;28;20191;-82
2022/09/23 01:31:22;;;;;;;10.33;9.30;;;4.80;99.90;;;;;;5077555;28;20230;-82
2022/09/23 01:34:10;;;;;;;10.17;9.43;;;4.80;99.90;;;;;;5095250;28;20283;-82
2022/09/23 01:36:45;;;;;;;10.73;9.90;;;4.80;99.90;;;;;;5077676;28;20558;-81
2022/09/23 01:39:37;;;;;;;9.77;9.07;;;4.80;99.90;;;;;;5078267;28;20271;-82
2022/09/23 01:42:21;;;;;;;11.20;9.57;;;4.80;99.90;;;;;;5067928;28;20279;-82
2022/09/23 01:44:59;;;;;;;10.60;9.63;;;4.70;99.90;;;;;;5098952;28;20584;-82
2022/09/23 01:47:40;;;;;;;10.70;9.70;;;4.70;99.90;;;;;;5081254;28;20255;-82
2022/09/23 01:53:05;;;;;;;9.50;8.80;;;4.60;99.90;;;;;;5098535;28;20189;-82
2022/09/23 01:55:37;;;;;;;9.70;8.90;;;4.60;99.90;;;;;;5080181;28;20181;-82
2022/09/23 01:58:11;;;;;;;9.17;8.23;;;4.60;99.90;;;;;;5078621;28;20291;-82
2022/09/23 02:00:42;;;;;;;9.27;8.47;;;4.50;99.90;;;;;;5096906;28;20191;-80
2022/09/23 02:03:26;;;;;;;12.00;10.00;;;4.50;99.90;;;;;;5095484;28;20559;-82
2022/09/23 02:06:08;;;;;;;11.43;10.60;;;4.60;99.90;;;;;;5078994;28;20193;-82
2022/09/23 02:08:39;;;;;;;11.23;10.23;;;4.60;99.90;;;;;;5079481;28;20177;-82
2022/09/23 02:11:09;;;;;;;11.50;10.70;;;4.60;99.90;;;;;;5080851;28;20173;-82
2022/09/23 02:13:53;;;;;;;17.13;15.80;;;4.60;99.90;;;;;;5080258;28;20625;-81
2022/09/23 02:16:40;;;;;;;20.20;19.00;;;4.60;99.90;;;;;;5079767;28;20176;-82
2022/09/23 02:19:29;;;;;;;11.77;10.87;;;4.60;99.90;;;;;;5078990;28;20184;-82
2022/09/23 02:22:09;;;;;;;11.17;10.03;;;4.60;99.90;;;;;;5079000;28;20181;-82
2022/09/23 02:24:38;;;;;;;10.67;9.80;;;4.60;99.90;;;;;;5097439;28;20266;-82
2022/09/23 02:27:06;;;;;;;10.47;9.63;;;4.50;99.90;;;;;;5079185;28;20816;-81
2022/09/23 02:29:48;;;;;;;10.80;10.07;;;4.50;99.90;;;;;;5096432;28;20204;-80
2022/09/23 02:32:20;;;;;;;11.00;10.17;;;4.40;99.90;;;;;;5087385;28;20245;-80
2022/09/23 02:35:14;;;;;;;10.90;9.80;;;4.30;99.90;;;;;;5111901;28;20215;-81
2022/09/23 02:38:00;;;;;;;12.93;11.60;;;4.30;99.90;;;;;;5096937;28;20199;-80
2022/09/23 02:40:37;;;;;;;12.87;11.87;;;4.30;99.90;;;;;;5084645;28;20694;-81
2022/09/23 02:43:31;;;;;;;12.70;11.50;;;4.30;99.90;;;;;;5098138;28;20240;-81
2022/09/23 02:45:57;;;;;;;13.90;12.57;;;4.30;99.90;;;;;;5081935;28;20177;-79
2022/09/23 02:48:28;;;;;;;12.23;11.33;;;4.30;99.90;;;;;;5099191;28;20211;-80
2022/09/23 02:50:54;;;;;;;12.37;11.23;;;4.30;99.90;;;;;;5097673;28;20189;-82
2022/09/23 02:53:23;;;;;;;12.30;11.43;;;4.20;99.90;;;;;;5080826;28;20192;-80
2022/09/23 02:55:49;;;;;;;11.30;10.50;;;4.30;99.90;;;;;;5097127;28;20235;-82
2022/09/23 02:58:18;;;;;;;10.67;9.87;;;4.20;99.90;;;;;;5078887;28;20177;-81
2022/09/23 03:00:58;;;;;;;12.90;12.10;;;4.20;99.90;;;;;;5078950;28;20871;-82
2022/09/23 03:03:45;;;;;;;10.80;10.10;;;4.20;99.90;;;;;;5078452;28;20217;-81
2022/09/23 03:06:35;;;;;;;11.80;10.60;;;4.20;99.90;;;;;;5078688;28;20172;-81
2022/09/23 03:09:11;;;;;;;10.03;9.43;;;4.10;99.90;;;;;;5096287;28;20177;-81
2022/09/23 03:11:43;;;;;;;9.97;9.37;;;4.10;99.90;;;;;;5096444;28;20307;-81
2022/09/23 03:14:29;;;;;;;11.27;10.47;;;4.00;99.90;;;;;;5078122;28;20205;-81
2022/09/23 03:17:13;;;;;;;11.70;10.80;;;4.00;99.90;;;;;;5077130;28;20558;-81
2022/09/23 03:19:49;;;;;;;11.63;10.93;;;4.00;99.90;;;;;;5077828;28;20185;-81
2022/09/23 03:22:22;;;;;;;12.67;11.77;;;4.00;99.90;;;;;;5097843;28;20191;-81
2022/09/23 03:24:49;;;;;;;14.90;13.90;;;3.90;99.90;;;;;;5079945;28;20300;-81
2022/09/23 03:27:20;;;;;;;12.87;11.83;;;3.90;99.90;;;;;;5079883;28;20173;-81
2022/09/23 03:29:49;;;;;;;14.87;13.80;;;3.90;99.90;;;;;;5079710;28;20173;-81
2022/09/23 03:32:18;;;;;;;11.07;10.37;;;3.90;99.90;;;;;;5080078;28;20184;-81
2022/09/23 03:34:48;;;;;;;14.83;13.93;;;3.90;99.90;;;;;;5079531;28;20219;-81
2022/09/23 03:37:29;;;;;;;15.10;13.73;;;3.90;99.90;;;;;;5078473;28;20592;-81
2022/09/23 03:40:19;;;;;;;11.90;11.20;;;3.90;99.90;;;;;;5078385;28;20180;-81
2022/09/23 03:42:47;;;;;;;14.53;13.60;;;3.80;99.90;;;;;;5097619;28;20180;-82
2022/09/23 03:45:17;;;;;;;20.10;18.90;;;3.80;99.90;;;;;;5078974;28;20219;-81
2022/09/23 03:47:44;;;;;;;22.17;20.83;;;3.80;99.90;;;;;;5095463;28;20256;-81
2022/09/23 03:50:16;;;;;;;26.73;25.03;;;3.90;99.90;;;;;;5078138;28;20183;-81
2022/09/23 03:52:42;;;;;;;24.47;23.07;;;3.90;99.90;;;;;;5100118;28;20185;-80
2022/09/23 03:55:10;;;;;;;12.90;12.00;;;3.90;99.90;;;;;;5084448;28;20200;-81
2022/09/23 03:57:36;;;;;;;14.00;13.10;;;3.90;99.90;;;;;;5078098;28;20184;-81
2022/09/23 04:00:05;;;;;;;13.27;12.43;;;3.80;99.90;;;;;;5077893;28;20681;-82
2022/09/23 04:02:31;;;;;;;16.10;15.00;;;3.90;99.90;;;;;;5077193;28;20676;-81
2022/09/23 04:04:57;;;;;;;15.03;14.07;;;3.80;99.90;;;;;;5104800;23;20229;-77
2022/09/23 04:07:24;;;;;;;16.53;15.40;;;3.80;99.90;;;;;;5090998;28;20207;-77
2022/09/23 04:09:51;;;;;;;16.27;15.07;;;3.80;99.90;;;;;;5092543;28;20230;-77
2022/09/23 04:12:19;;;;;;;15.93;14.83;;;3.80;99.90;;;;;;5091139;28;20177;-77
2022/09/23 04:14:45;;;;;;;19.43;18.20;;;3.80;99.90;;;;;;5090956;28;20258;-77
2022/09/23 04:17:11;;;;;;;24.47;22.70;;;3.80;99.90;;;;;;5090846;28;20669;-77
2022/09/23 04:19:37;;;;;;;19.50;18.20;;;3.80;99.90;;;;;;5091003;28;20538;-77
2022/09/23 04:22:04;;;;;;;20.90;19.33;;;3.80;99.90;;;;;;5090966;28;20188;-77
2022/09/23 04:24:31;;;;;;;14.83;13.80;;;3.80;99.90;;;;;;5092057;28;20243;-77
2022/09/23 04:26:57;;;;;;;14.23;13.10;;;3.80;99.90;;;;;;5091712;28;20728;-77
2022/09/23 04:29:24;;;;;;;15.83;14.73;;;3.70;99.90;;;;;;5090541;28;20199;-77
2022/09/23 04:31:50;;;;;;;19.30;17.80;;;3.70;99.90;;;;;;5090794;28;20173;-77
2022/09/23 04:34:17;;;;;;;20.47;19.07;;;3.70;99.90;;;;;;5094850;28;20264;-77
2022/09/23 04:36:44;;;;;;;24.73;23.13;;;3.70;99.90;;;;;;5104740;28;20177;-77
2022/09/23 04:39:11;;;;;;;14.90;14.00;;;3.70;99.90;;;;;;5084686;28;20177;-75
2022/09/23 04:41:37;;;;;;;16.27;15.10;;;3.70;99.90;;;;;;5081934;28;20260;-75
2022/09/23 04:44:03;;;;;;;16.03;14.97;;;3.60;99.90;;;;;;5090929;28;20204;-74
2022/09/23 04:46:30;;;;;;;20.37;18.97;;;3.60;99.90;;;;;;5091710;28;20584;-74
2022/09/23 04:48:56;;;;;;;24.77;23.20;;;3.60;99.90;;;;;;5091205;28;20169;-74
2022/09/23 04:51:23;;;;;;;14.97;13.87;;;3.60;99.90;;;;;;5091144;28;20181;-74
2022/09/23 04:53:51;;;;;;;20.60;19.33;;;3.60;99.90;;;;;;5091127;28;20645;-74
2022/09/23 04:56:22;;;;;;;18.03;16.83;;;3.60;99.90;;;;;;5090983;28;20268;-74
2022/09/23 04:58:49;;;;;;;16.57;15.43;;;3.60;99.90;;;;;;5090821;28;20183;-74
2022/09/23 05:01:25;;;;;;;22.17;20.60;;;3.70;99.90;;;;;;5091161;28;20177;-74
2022/09/23 05:03:56;;;;;;;17.97;16.77;;;3.70;99.90;;;;;;5087515;28;20212;-74
2022/09/23 05:06:24;;;;;;;20.43;19.23;;;3.70;99.90;;;;;;5090807;28;20177;-74
2022/09/23 05:08:52;;;;;;;37.20;35.13;;;3.70;99.90;;;;;;5090408;28;20588;-74
2022/09/23 05:11:19;;;;;;;14.90;13.90;;;3.70;99.90;;;;;;5087240;28;20188;-73
2022/09/23 05:13:47;;;;;;;15.77;14.53;;;3.70;99.90;;;;;;5069848;28;20291;-74
2022/09/23 05:16:14;;;;;;;16.43;15.33;;;3.70;99.90;;;;;;5090680;28;20180;-74
2022/09/23 05:18:41;;;;;;;13.80;12.80;;;3.70;99.90;;;;;;5089051;28;20234;-74
2022/09/23 05:21:09;;;;;;;18.73;17.53;;;3.70;99.90;;;;;;5090612;28;20205;-74
2022/09/23 05:23:35;;;;;;;14.23;12.97;;;3.70;99.90;;;;;;5089116;28;20216;-73
2022/09/23 05:26:04;;;;;;;22.10;20.60;;;3.80;99.90;;;;;;5090320;28;20204;-73
2022/09/23 05:28:31;;;;;;;25.53;23.93;;;3.80;99.90;;;;;;5089917;28;20645;-74
2022/09/23 05:31:06;;;;;;;25.77;24.20;;;3.90;99.90;;;;;;5090216;28;20187;-73
2022/09/23 05:33:34;;;;;;;14.53;13.30;;;4.10;99.90;;;;;;5090466;28;20176;-74
2022/09/23 05:36:00;;;;;;;19.13;17.77;;;4.20;99.90;;;;;;5090233;28;20177;-74
2022/09/23 05:38:28;;;;;;;20.50;19.13;;;4.30;99.90;;;;;;5090202;28;20192;-74
2022/09/23 05:40:55;;;;;;;31.53;29.37;;;4.40;99.90;;;;;;5090342;28;20614;-74
2022/09/23 05:43:21;;;;;;;15.33;13.90;;;4.50;99.90;;;;;;5094988;28;20209;-74
2022/09/23 05:45:47;;;;;;;17.20;15.63;;;4.60;99.90;;;;;;5104295;28;20177;-74
2022/09/23 05:48:12;;;;;;;18.87;17.23;;;4.70;99.90;;;;;;5099327;28;20638;-74
2022/09/23 05:50:38;;;;;;;17.30;15.43;;;4.70;99.90;;;;;;5090925;28;20230;-74
2022/09/23 05:53:04;;;;;;;18.30;17.10;;;4.80;99.90;;;;;;5091452;28;20639;-74
2022/09/23 05:55:30;;;;;;;21.50;20.20;;;4.90;99.90;;;;;;5090249;28;20220;-74
2022/09/23 05:57:56;;;;;;;14.53;13.43;;;5.00;99.90;;;;;;5089893;28;20180;-74
2022/09/23 06:00:22;;;;;;;13.90;10.83;;;5.10;99.90;;;;;;5091378;28;20569;-74
2022/09/23 06:02:48;;;;;;;12.60;11.53;;;5.20;99.90;;;;;;5089159;28;20748;-73
2022/09/23 06:05:15;;;;;;;14.07;9.73;;;5.40;99.90;;;;;;5092280;28;20766;-74
2022/09/23 06:07:41;;;;;;;12.90;12.00;;;5.50;99.90;;;;;;5089159;28;20197;-75
2022/09/23 06:10:07;;;;;;;14.60;13.57;;;5.60;99.90;;;;;;5089083;28;20178;-75
2022/09/23 06:12:34;;;;;;;10.40;9.50;;;5.70;99.90;;;;;;5090171;28;20177;-74
2022/09/23 06:15:00;;;;;;;9.87;8.93;;;5.90;99.90;;;;;;5090793;28;20204;-74
2022/09/23 06:17:26;;;;;;;22.83;21.10;;;6.00;99.90;;;;;;5089015;28;20189;-74
2022/09/23 06:19:51;;;;;;;27.57;25.90;;;6.20;99.90;;;;;;5088786;28;20177;-74
2022/09/23 06:22:17;;;;;;;14.87;13.87;;;6.30;99.90;;;;;;5090134;28;20177;-74
2022/09/23 06:24:43;;;;;;;13.13;11.90;;;6.50;99.90;;;;;;5089400;28;20596;-73
2022/09/23 06:27:09;;;;;;;17.67;16.13;;;6.60;99.90;;;;;;5079746;28;20185;-75
2022/09/23 06:29:35;;;;;;;13.93;13.00;;;6.80;99.90;;;;;;5086722;28;20260;-74
2022/09/23 06:32:01;;;;;;;14.40;13.50;;;6.90;99.90;;;;;;5094256;28;20181;-75
2022/09/23 06:34:27;;;;;;;18.67;17.53;;;7.10;99.90;;;;;;5095224;28;20226;-76
2022/09/23 06:36:54;;;;;;;15.57;14.57;;;7.40;99.90;;;;;;5101128;28;20204;-75
2022/09/23 06:39:20;;;;;;;13.47;12.40;;;8.00;99.90;;;;;;5095443;28;20185;-74
2022/09/23 06:41:46;;;;;;;17.07;15.87;;;8.60;99.90;;;;;;5093266;28;20177;-75
2022/09/23 06:44:13;;;;;;;16.77;15.67;;;9.10;99.90;;;;;;5092552;28;20642;-74
2022/09/23 06:46:39;;;;;;;18.17;17.00;;;9.50;99.90;;;;;;5092480;28;20181;-74
2022/09/23 06:49:05;;;;;;;14.37;13.13;;;10.00;99.90;;;;;;5092776;28;20541;-74
2022/09/23 06:51:31;;;;;;;10.90;9.90;;;10.70;99.90;;;;;;5093075;28;20185;-74
2022/09/23 06:53:57;;;;;;;12.97;12.10;;;11.30;99.90;;;;;;5093364;28;20197;-74
2022/09/23 06:56:23;;;;;;;8.63;7.70;;;11.80;99.90;;;;;;5100763;28;20594;-74
2022/09/23 06:58:51;;;;;;;18.93;17.47;;;11.80;99.90;;;;;;5100515;28;20181;-74
2022/09/23 07:01:18;;;;;;;38.00;35.73;;;12.20;99.90;;;;;;5092990;28;20189;-74
2022/09/23 07:03:45;;;;;;;23.07;21.47;;;12.00;99.90;;;;;;5092393;28;20295;-74
2022/09/23 07:06:12;;;;;;;17.67;16.53;;;11.80;99.90;;;;;;5092906;28;20184;-74
2022/09/23 07:08:39;;;;;;;13.10;12.30;;;12.20;99.90;;;;;;5093244;28;20564;-74
2022/09/23 07:11:06;;;;;;;11.00;10.20;;;12.90;99.90;;;;;;5092360;28;20181;-75
2022/09/23 07:13:33;;;;;;;9.73;8.93;;;13.30;99.90;;;;;;5093517;28;20260;-74
2022/09/23 07:16:00;;;;;;;15.10;14.03;;;13.50;99.90;;;;;;5092976;28;20720;-75
2022/09/23 07:18:29;;;;;;;22.47;21.00;;;13.60;99.90;;;;;;5092369;28;20558;-75
2022/09/23 07:20:56;;;;;;;28.23;26.43;;;13.70;99.90;;;;;;5092910;28;20185;-75
2022/09/23 07:23:25;;;;;;;26.77;25.20;;;14.00;99.90;;;;;;5090801;28;20208;-75
2022/09/23 07:25:51;;;;;;;15.90;14.97;;;14.20;99.90;;;;;;5092762;28;20177;-75
2022/09/23 07:28:18;;;;;;;14.97;14.07;;;14.20;99.90;;;;;;5091530;28;20183;-74
2022/09/23 07:30:45;;;;;;;24.03;22.67;;;14.00;99.90;;;;;;5092574;28;20181;-74
2022/09/23 07:33:12;;;;;;;19.60;18.43;;;13.90;99.90;;;;;;5092708;28;20219;-74
2022/09/23 07:35:40;;;;;;;12.67;11.67;;;14.00;99.90;;;;;;5091217;28;20249;-74
2022/09/23 07:38:08;;;;;;;10.00;9.00;;;14.30;99.90;;;;;;5090400;28;20668;-74
2022/09/23 07:40:34;;;;;;;8.83;8.00;;;14.50;99.90;;;;;;5092879;28;20657;-74
2022/09/23 07:43:03;;;;;;;7.40;7.00;;;14.70;99.90;;;;;;5093808;28;20263;-76
2022/09/23 07:45:31;;;;;;;7.37;6.73;;;15.10;99.90;;;;;;5092501;28;20204;-73
2022/09/23 07:47:57;;;;;;;6.57;6.07;;;15.00;99.90;;;;;;5091583;28;20828;-75
2022/09/23 07:50:23;;;;;;;6.53;6.03;;;15.10;99.90;;;;;;5092502;28;20326;-75
2022/09/23 07:52:51;;;;;;;8.70;8.00;;;15.60;99.90;;;;;;5092456;28;20188;-75
2022/09/23 07:55:18;;;;;;;9.97;9.27;;;16.00;99.90;;;;;;5091274;28;20205;-75
2022/09/23 07:57:44;;;;;;;7.47;6.87;;;16.50;99.90;;;;;;5095870;28;20553;-75
2022/09/23 08:00:12;;;;;;;7.30;6.70;;;16.60;99.90;;;;;;5099083;28;20246;-75
2022/09/23 08:02:40;;;;;;;7.60;6.90;;;16.90;99.90;;;;;;5092397;28;20891;-75
2022/09/23 08:05:06;;;;;;;9.73;8.93;;;17.30;99.90;;;;;;5091097;28;20270;-75
2022/09/23 08:07:33;;;;;;;13.43;12.63;;;17.70;99.90;;;;;;5090684;28;20204;-75
2022/09/23 08:10:00;;;;;;;19.97;18.73;;;17.80;99.90;;;;;;5091228;28;20185;-75
2022/09/23 08:12:28;;;;;;;18.30;17.17;;;18.20;99.90;;;;;;5091855;28;20169;-75
2022/09/23 08:14:54;;;;;;;19.97;18.87;;;18.30;99.90;;;;;;5090872;28;20201;-75
2022/09/23 08:17:20;;;;;;;17.50;16.53;;;17.90;99.90;;;;;;5090873;28;20615;-75
2022/09/23 08:19:46;;;;;;;20.60;19.30;;;17.80;99.90;;;;;;5090846;28;20684;-75
2022/09/23 08:22:12;;;;;;;18.87;17.80;;;17.70;99.90;;;;;;5091992;28;20714;-75
2022/09/23 08:24:38;;;;;;;17.30;16.23;;;17.60;99.90;;;;;;5090634;28;20221;-75
2022/09/23 08:27:05;;;;;;;17.73;16.63;;;17.50;99.90;;;;;;5090229;28;20198;-75
2022/09/23 08:29:30;;;;;;;19.13;18.00;;;17.20;99.90;;;;;;5091860;28;20284;-74
2022/09/23 08:31:57;;;;;;;17.37;16.17;;;16.70;99.90;;;;;;5091930;28;20174;-75
2022/09/23 08:34:25;;;;;;;12.47;11.77;;;16.70;99.90;;;;;;5091831;28;20201;-74
2022/09/23 08:36:51;;;;;;;10.27;9.67;;;16.70;99.90;;;;;;5091445;28;20185;-75
2022/09/23 08:39:19;;;;;;;11.53;10.83;;;16.90;99.90;;;;;;5091492;28;20573;-74
2022/09/23 08:41:44;;;;;;;11.47;10.47;;;17.00;99.90;;;;;;5091307;28;20181;-75
2022/09/23 08:44:26;;;;;;;12.20;11.30;;;17.20;99.90;;;;;;5091515;28;20715;-75
2022/09/23 08:47:13;;;;;;;17.03;15.67;;;17.50;99.90;;;;;;5091335;28;20307;-75
2022/09/23 08:49:56;;;;;;;20.67;19.47;;;17.70;99.90;;;;;;5092199;28;20181;-75
2022/09/23 08:52:31;;;;;;;19.40;18.37;;;17.50;99.90;;;;;;5105275;28;20256;-75
2022/09/23 08:54:57;;;;;;;21.80;20.33;;;17.60;99.90;;;;;;5091532;28;20193;-75
2022/09/23 08:57:38;;;;;;;18.80;17.60;;;17.70;99.90;;;;;;5092078;28;20181;-75
2022/09/23 09:00:06;;;;;;;20.57;19.40;;;17.80;99.90;;;;;;5092703;28;20185;-75
2022/09/23 09:02:34;;;;;;;22.80;21.63;;;17.90;99.90;;;;;;5092015;28;20669;-75
2022/09/23 09:05:05;;;;;;;26.07;24.63;;;18.20;99.90;;;;;;5091554;28;20239;-75
2022/09/23 09:07:34;;;;;;;22.63;21.43;;;18.50;99.90;;;;;;5090944;28;20738;-76
2022/09/23 09:10:22;;;;;;;21.03;19.87;;;18.90;99.90;;;;;;5088645;28;20207;-76
2022/09/23 09:12:49;;;;;;;25.17;23.57;;;19.30;99.90;;;;;;5074789;28;20182;-72
2022/09/23 09:15:22;;;;;;;20.97;19.87;;;19.50;99.90;;;;;;5089670;28;20200;-74
2022/09/23 09:18:10;;;;;;;9.27;8.77;;;19.70;99.90;;;;;;5090352;28;20286;-73
2022/09/23 09:20:57;;;;;;;6.87;6.37;;;20.00;99.90;;;;;;5089918;28;20177;-73
2022/09/23 09:23:36;;;;;;;7.03;6.63;;;19.90;99.90;;;;;;5089788;28;20254;-73
2022/09/23 09:26:03;;;;;;;7.23;6.83;;;19.80;99.90;;;;;;5091145;28;20315;-72
2022/09/23 09:28:50;;;;;;;5.83;5.43;;;20.00;99.90;;;;;;5090519;28;20177;-73
2022/09/23 09:31:33;;;;;;;5.68;5.35;;;20.50;99.90;;;;;;5091176;28;20179;-71
2022/09/23 09:34:04;;;;;;;6.57;6.20;;;20.50;99.90;;;;;;5090645;28;20333;-71
2022/09/23 09:37:05;;;;;;;8.87;8.27;;;20.80;99.30;;;;;;5090973;28;20200;-70
2022/09/23 09:39:35;;;;;;;7.03;6.53;;;20.90;98.60;;;;;;5090064;28;20205;-70
2022/09/23 09:42:03;;;;;;;7.50;7.10;;;21.10;97.90;;;;;;5090621;28;20242;-71
2022/09/23 09:44:52;;;;;;;7.68;7.18;;;21.00;98.30;;;;;;5097236;28;20258;-70
2022/09/23 09:47:36;;;;;;;5.57;5.13;;;21.10;98.20;;;;;;5092575;28;20184;-70
2022/09/23 09:50:09;;;;;;;5.30;4.90;;;21.40;97.10;;;;;;5090885;28;20180;-70
2022/09/23 09:52:35;;;;;;;7.32;5.90;;;21.30;97.10;;;;;;5090597;28;20177;-70
2022/09/23 09:55:13;;;;;;;7.65;6.15;;;21.10;98.30;;;;;;5090819;28;20204;-70
2022/09/23 09:57:46;;;;;;;10.50;9.70;;;20.80;98.80;;;;;;5090278;28;20181;-70
2022/09/23 10:00:41;;;;;;;7.90;7.40;;;20.00;99.90;;;;;;5091894;28;20191;-70
2022/09/23 10:03:22;;;;;;;8.53;7.87;;;19.80;99.90;;;;;;5090686;28;20266;-75
2022/09/23 10:05:51;;;;;;;8.57;8.00;;;20.20;99.90;;;;;;5078433;22;20236;-76
2022/09/23 10:08:35;;;;;;;8.52;7.80;;;20.70;99.90;;;;;;5051870;28;20219;-77
2022/09/23 10:11:09;;;;;;;7.13;6.57;;;20.80;98.20;;;;;;5089710;28;20181;-77
2022/09/23 10:13:36;;;;;;;5.85;5.30;;;21.00;97.90;;;;;;5071648;28;20192;-77
2022/09/23 10:16:03;;;;;;;5.50;5.05;;;21.40;97.70;;;;;;5063952;28;20201;-76
2022/09/23 10:18:36;;;;;;;6.00;4.93;;;21.80;96.50;;;;;;5061886;28;20186;-77
2022/09/23 10:21:13;;;;;;;5.28;4.88;;;22.40;96.00;;;;;;5043523;28;20250;-77
2022/09/23 10:23:45;;;;;;;7.30;5.30;;;22.80;95.10;;;;;;5043455;28;20217;-76
2022/09/23 10:26:15;;;;;;;5.28;4.97;;;22.90;92.30;;;;;;5059609;28;20182;-78
2022/09/23 10:28:50;;;;;;;6.70;6.20;;;23.60;92.10;;;;;;5053379;28;20593;-77
2022/09/23 10:31:25;;;;;;;11.52;9.32;;;23.90;90.30;;;;;;5055915;28;20186;-79
2022/09/23 10:34:18;;;;;;;10.20;9.38;;;24.30;88.90;;;;;;5055817;28;20185;-79
2022/09/23 10:37:11;;;;;;;12.73;11.98;;;24.50;88.40;;;;;;5055318;28;20183;-79
2022/09/23 10:48:56;;;;;;;27.02;25.65;;;25.80;79.30;;;;;;5057857;28;20189;-79
2022/09/23 10:51:32;;;;;;;40.13;37.33;;;26.00;75.30;;;;;;5055570;28;20179;-79
2022/09/23 10:54:13;;;;;;;15.05;14.20;;;26.00;75.70;;;;;;5055193;28;20694;-78
2022/09/23 10:56:44;;;;;;;28.08;26.42;;;25.70;71.90;;;;;;5055049;28;20665;-79
2022/09/23 10:59:17;;;;;;;17.25;16.00;;;25.60;74.80;;;;;;5056017;28;20182;-78
2022/09/23 11:01:50;;;;;;;32.90;31.30;;;25.00;74.30;;;;;;5054532;28;20178;-80
2022/09/23 11:04:27;;;;;;;29.02;27.55;;;25.40;76.20;;;;;;5056998;28;20770;-78
2022/09/23 11:07:01;;;;;;;26.98;25.67;;;25.50;74.70;;;;;;5056060;28;20192;-80
2022/09/23 11:10:08;;;;;;;23.17;21.95;;;25.60;75.00;;;;;;5056541;28;20182;-80
2022/09/23 11:12:51;;;;;;;29.02;27.38;;;25.40;74.20;;;;;;4995527;28;20188;-79
2022/09/23 11:15:39;;;;;;;34.95;32.60;;;26.00;74.90;;;;;;4979976;28;20216;-79
2022/09/23 11:18:18;;;;;;;26.00;24.55;;;26.10;74.30;;;;;;5042134;28;20597;-77
2022/09/23 11:21:03;;;;;;;26.58;24.77;;;26.10;72.60;;;;;;5054616;28;20182;-77
2022/09/23 11:23:56;;;;;;;12.68;11.98;;;26.30;73.70;;;;;;5055707;28;20678;-80
2022/09/23 11:26:34;;;;;;;7.78;7.28;;;26.50;70.00;;;;;;5056687;28;20276;-79
2022/09/23 11:29:12;;;;;;;10.60;9.65;;;26.80;70.40;;;;;;5055737;28;20182;-79
2022/09/23 11:32:26;;;;;;;6.75;6.35;;;27.40;70.00;;;;;;5056992;28;20186;-79
2022/09/23 11:35:09;;;;;;;6.00;5.60;;;27.30;66.50;;;;;;5049993;28;20226;-78
2022/09/23 11:37:41;;;;;;;6.97;6.45;;;27.40;67.70;;;;;;5055023;28;20729;-78
2022/09/23 11:40:28;;;;;;;5.55;5.15;;;27.60;68.10;;;;;;5054836;28;20183;-80
2022/09/23 11:42:58;;;;;;;6.30;5.75;;;27.70;64.90;;;;;;5057124;28;20182;-79
2022/09/23 11:45:29;;;;;;;6.72;6.07;;;27.90;64.30;;;;;;5056326;28;20206;-79
2022/09/23 11:48:12;;;;;;;6.43;5.70;;;28.00;65.50;;;;;;5055435;28;20194;-79
2022/09/23 11:50:52;;;;;;;5.28;4.90;;;27.50;62.30;;;;;;5059189;28;20178;-79
2022/09/23 11:53:35;;;;;;;4.75;4.35;;;27.30;64.00;;;;;;5055936;28;20190;-79
2022/09/23 11:56:17;;;;;;;5.28;4.80;;;27.60;62.40;;;;;;5053422;28;20206;-78
2022/09/23 11:59:12;;;;;;;4.70;4.40;;;28.10;61.50;;;;;;5053569;28;20340;-78
2022/09/23 12:02:00;;;;;;;4.05;3.75;;;28.30;59.80;;;;;;5054304;28;20246;-78
2022/09/23 12:04:34;;;;;;;7.10;4.88;;;28.00;61.30;;;;;;5014189;28;20655;-80
2022/09/23 12:07:23;;;;;;;5.05;4.75;;;28.60;59.30;;;;;;5053535;28;20191;-79
2022/09/23 12:09:59;;;;;;;4.75;4.38;;;27.60;59.10;;;;;;5053912;28;20773;-79
2022/09/23 12:12:39;;;;;;;4.00;3.80;;;27.90;59.80;;;;;;5054068;28;20174;-79
2022/09/23 12:15:11;;;;;;;4.53;3.53;;;28.40;57.80;;;;;;5058822;28;20304;-79
2022/09/23 12:18:00;;;;;;;4.30;3.92;;;28.90;59.50;;;;;;5057334;28;20565;-79
2022/09/23 12:20:48;;;;;;;5.38;3.97;;;28.80;57.40;;;;;;5056168;28;20274;-78
2022/09/23 12:23:25;;;;;;;4.82;4.53;;;28.60;57.80;;;;;;5050273;28;20516;-79
2022/09/23 12:25:56;;;;;;;3.85;3.58;;;29.10;56.60;;;;;;5047528;28;20199;-80
2022/09/23 12:28:27;;;;;;;4.30;3.90;;;29.70;57.90;;;;;;5065601;28;20170;-79
2022/09/23 12:30:57;;;;;;;3.88;3.50;;;29.10;57.40;;;;;;5058433;28;20351;-80
2022/09/23 12:33:26;;;;;;;5.43;4.25;;;29.10;57.60;;;;;;5053777;28;20193;-80
2022/09/23 12:36:03;;;;;;;4.35;4.05;;;29.40;56.80;;;;;;5056004;28;20205;-80
2022/09/23 12:38:51;;;;;;;4.68;4.25;;;29.10;57.40;;;;;;5053644;28;20212;-80
2022/09/23 12:41:21;;;;;;;4.32;3.78;;;29.60;55.00;;;;;;5057642;28;20227;-80
2022/09/23 12:44:09;;;;;;;4.95;3.70;;;29.70;55.30;;;;;;5056138;28;20186;-81
2022/09/23 12:46:35;;;;;;;4.70;3.90;;;30.00;53.80;;;;;;5055982;28;20182;-78
2022/09/23 12:49:03;;;;;;;4.85;4.55;;;30.20;53.80;;;;;;5055452;28;20180;-80
2022/09/23 12:51:36;;;;;;;4.03;3.72;;;29.80;54.20;;;;;;5056730;28;20276;-79
2022/09/23 12:54:05;;;;;;;4.78;4.40;;;28.90;54.30;;;;;;5056291;28;20305;-80
2022/09/23 12:56:37;;;;;;;4.88;3.80;;;28.90;54.20;;;;;;5057915;28;20182;-77
2022/09/23 12:59:20;;;;;;;4.70;4.38;;;29.50;54.20;;;;;;5059469;28;20187;-77
2022/09/23 13:01:46;;;;;;;6.40;5.90;;;29.70;53.40;;;;;;5056869;28;20174;-80
2022/09/23 13:07:32;;;;;;;5.20;4.65;;;29.60;53.70;;;;;;5052972;28;20190;-77
2022/09/23 13:10:16;;;;;;;6.82;5.22;;;29.80;53.90;;;;;;5051932;28;20350;-79
2022/09/23 13:12:44;;;;;;;7.20;5.55;;;29.40;55.40;;;;;;5055354;28;20269;-78
2022/09/23 13:15:34;;;;;;;6.25;5.65;;;29.20;55.40;;;;;;5056780;28;20750;-79
2022/09/23 13:18:21;;;;;;;4.30;4.00;;;28.40;56.20;;;;;;5057415;28;20269;-76
2022/09/23 13:20:51;;;;;;;6.22;5.65;;;27.90;55.10;;;;;;5048723;28;20178;-77
2022/09/23 13:23:30;;;;;;;10.40;9.27;;;27.90;56.90;;;;;;5035277;28;20328;-79